sensor_id;sensor_type;location;lat;lon;timestamp;pressure;altitude;pressure_sealevel;temperature;humidity
65800;BME280;52544;48.116;11.660;2023-04-30T00:00:03;95775.94;;;11.46;100.00
65800;BME280;52544;48.116;11.660;2023-04-30T00:02:32;95782.47;;;11.42;100.00
65800;BME280;52544;48.116;11.660;2023-04-30T00:04:58;95776.94;;;11.45;100.00
65800;BME280;52544;48.116;11.660;2023-04-30T00:07:23;95787.19;;;11.38;100.00
65800;BME280;52544;48.116;11.660;2023-04-30T00:09:48;95781.91;;;11.38;100.00
65800;BME280;52544;48.116;11.660;2023-04-30T00:12:15;95775.06;;;11.36;100.00
65800;BME280;52544;48.116;11.660;2023-04-30T00:14:41;95786.09;;;11.41;100.00
65800;BME280;52544;48.116;11.660;2023-04-30T00:17:06;95779.81;;;11.42;100.00
65800;BME280;52544;48.116;11.660;2023-04-30T00:19:31;95784.69;;;11.37;100.00
65800;BME280;52544;48.116;11.660;2023-04-30T00:21:57;95787.47;;;11.35;100.00
65800;BME280;52544;48.116;11.660;2023-04-30T00:24:22;95789.09;;;11.26;100.00
65800;BME280;52544;48.116;11.660;2023-04-30T00:26:48;95787.41;;;11.25;100.00
65800;BME280;52544;48.116;11.660;2023-04-30T00:29:13;95797.56;;;11.20;100.00
65800;BME280;52544;48.116;11.660;2023-04-30T00:31:38;95796.41;;;11.13;100.00
65800;BME280;52544;48.116;11.660;2023-04-30T00:34:04;95798.53;;;11.19;100.00
65800;BME280;52544;48.116;11.660;2023-04-30T00:36:29;95797.94;;;11.16;100.00
65800;BME280;52544;48.116;11.660;2023-04-30T00:38:56;95796.59;;;11.21;100.00
65800;BME280;52544;48.116;11.660;2023-04-30T00:41:21;95795.19;;;11.17;100.00
65800;BME280;52544;48.116;11.660;2023-04-30T00:43:47;95796.59;;;11.21;100.00
65800;BME280;52544;48.116;11.660;2023-04-30T00:46:12;95796.03;;;11.18;100.00
65800;BME280;52544;48.116;11.660;2023-04-30T00:48:37;95796.03;;;11.18;100.00
65800;BME280;52544;48.116;11.660;2023-04-30T00:51:03;95807.31;;;11.20;100.00
65800;BME280;52544;48.116;11.660;2023-04-30T00:53:30;95813.72;;;11.17;100.00
65800;BME280;52544;48.116;11.660;2023-04-30T00:55:56;95799.38;;;11.20;100.00
65800;BME280;52544;48.116;11.660;2023-04-30T00:58:22;95796.53;;;11.12;100.00
65800;BME280;52544;48.116;11.660;2023-04-30T01:00:47;95802.66;;;11.12;100.00
65800;BME280;52544;48.116;11.660;2023-04-30T01:03:13;95792.19;;;11.11;100.00
65800;BME280;52544;48.116;11.660;2023-04-30T01:05:39;95801.22;;;11.08;100.00
65800;BME280;52544;48.116;11.660;2023-04-30T01:08:04;95797.16;;;11.04;100.00
65800;BME280;52544;48.116;11.660;2023-04-30T01:10:35;95801.03;;;11.00;100.00
65800;BME280;52544;48.116;11.660;2023-04-30T01:13:17;95807.31;;;10.99;100.00
65800;BME280;52544;48.116;11.660;2023-04-30T01:18:24;95811.69;;;10.89;100.00
65800;BME280;52544;48.116;11.660;2023-04-30T01:20:54;95811.25;;;10.84;100.00
65800;BME280;52544;48.116;11.660;2023-04-30T01:29:15;95821.66;;;10.96;100.00
65800;BME280;52544;48.116;11.660;2023-04-30T01:31:43;95816.56;;;11.05;100.00
65800;BME280;52544;48.116;11.660;2023-04-30T01:34:09;95818.53;;;10.91;100.00
65800;BME280;52544;48.116;11.660;2023-04-30T01:36:44;95813.41;;;10.79;100.00
65800;BME280;52544;48.116;11.660;2023-04-30T01:42:06;95823.16;;;10.78;100.00
65800;BME280;52544;48.116;11.660;2023-04-30T01:45:11;95822.31;;;10.77;100.00
65800;BME280;52544;48.116;11.660;2023-04-30T01:47:45;95818.84;;;10.77;100.00
65800;BME280;52544;48.116;11.660;2023-04-30T01:50:43;95823.81;;;10.70;100.00
65800;BME280;52544;48.116;11.660;2023-04-30T01:53:23;95821.03;;;10.72;100.00
65800;BME280;52544;48.116;11.660;2023-04-30T01:56:01;95819.91;;;10.74;100.00
65800;BME280;52544;48.116;11.660;2023-04-30T01:58:29;95827.16;;;10.72;100.00
65800;BME280;52544;48.116;11.660;2023-04-30T02:00:55;95829.56;;;10.75;100.00
65800;BME280;52544;48.116;11.660;2023-04-30T02:03:20;95826.06;;;10.75;100.00
65800;BME280;52544;48.116;11.660;2023-04-30T02:05:46;95819.91;;;10.74;100.00
65800;BME280;52544;48.116;11.660;2023-04-30T02:08:12;95820.25;;;10.81;100.00
65800;BME280;52544;48.116;11.660;2023-04-30T02:10:37;95823.06;;;10.80;100.00
65800;BME280;52544;48.116;11.660;2023-04-30T02:13:03;95823.09;;;10.68;100.00
65800;BME280;52544;48.116;11.660;2023-04-30T02:15:28;95814.91;;;10.71;100.00
65800;BME280;52544;48.116;11.660;2023-04-30T02:17:54;95817.09;;;10.66;100.00
65800;BME280;52544;48.116;11.660;2023-04-30T02:20:19;95825.50;;;10.60;100.00
65800;BME280;52544;48.116;11.660;2023-04-30T02:22:45;95819.00;;;10.64;100.00
65800;BME280;52544;48.116;11.660;2023-04-30T02:25:10;95829.22;;;10.69;100.00
65800;BME280;52544;48.116;11.660;2023-04-30T02:27:36;95831.47;;;10.73;100.00
65800;BME280;52544;48.116;11.660;2023-04-30T02:30:02;95831.25;;;10.65;100.00
65800;BME280;52544;48.116;11.660;2023-04-30T02:32:28;95833.69;;;10.57;100.00
65800;BME280;52544;48.116;11.660;2023-04-30T02:34:54;95843.78;;;10.63;100.00
65800;BME280;52544;48.116;11.660;2023-04-30T02:37:19;95838.75;;;10.60;100.00
65800;BME280;52544;48.116;11.660;2023-04-30T02:39:44;95848.94;;;10.65;100.00
65800;BME280;52544;48.116;11.660;2023-04-30T02:42:10;95846.31;;;10.65;100.00
65800;BME280;52544;48.116;11.660;2023-04-30T02:44:36;95847.63;;;10.70;100.00
65800;BME280;52544;48.116;11.660;2023-04-30T02:47:01;95838.25;;;10.66;100.00
65800;BME280;52544;48.116;11.660;2023-04-30T02:49:28;95838.25;;;10.66;100.00
65800;BME280;52544;48.116;11.660;2023-04-30T02:51:53;95837.03;;;10.70;100.00
65800;BME280;52544;48.116;11.660;2023-04-30T02:54:19;95840.34;;;10.51;100.00
65800;BME280;52544;48.116;11.660;2023-04-30T02:56:45;95839.13;;;10.44;100.00
65800;BME280;52544;48.116;11.660;2023-04-30T02:59:11;95841.91;;;10.43;100.00
65800;BME280;52544;48.116;11.660;2023-04-30T03:01:37;95846.00;;;10.36;100.00
65800;BME280;52544;48.116;11.660;2023-04-30T03:04:02;95855.53;;;10.38;100.00
65800;BME280;52544;48.116;11.660;2023-04-30T03:06:29;95854.44;;;10.41;100.00
65800;BME280;52544;48.116;11.660;2023-04-30T03:08:55;95861.19;;;10.45;100.00
65800;BME280;52544;48.116;11.660;2023-04-30T03:11:21;95855.28;;;10.41;100.00
65800;BME280;52544;48.116;11.660;2023-04-30T03:13:46;95842.66;;;10.34;100.00
65800;BME280;52544;48.116;11.660;2023-04-30T03:16:16;95854.47;;;10.30;100.00
65800;BME280;52544;48.116;11.660;2023-04-30T03:18:41;95851.19;;;10.37;100.00
65800;BME280;52544;48.116;11.660;2023-04-30T03:21:06;95845.41;;;10.32;100.00
65800;BME280;52544;48.116;11.660;2023-04-30T03:23:32;95847.59;;;10.27;100.00
65800;BME280;52544;48.116;11.660;2023-04-30T03:25:57;95842.66;;;10.34;100.00
65800;BME280;52544;48.116;11.660;2023-04-30T03:28:23;95838.44;;;10.31;100.00
65800;BME280;52544;48.116;11.660;2023-04-30T03:30:48;95836.88;;;10.17;100.00
65800;BME280;52544;48.116;11.660;2023-04-30T03:33:13;95832.06;;;10.22;100.00
65800;BME280;52544;48.116;11.660;2023-04-30T03:35:39;95832.44;;;10.18;100.00
65800;BME280;52544;48.116;11.660;2023-04-30T03:38:04;95823.91;;;10.25;100.00
65800;BME280;52544;48.116;11.660;2023-04-30T03:40:30;95831.00;;;10.14;100.00
65800;BME280;52544;48.116;11.660;2023-04-30T03:42:55;95828.47;;;10.12;100.00
65800;BME280;52544;48.116;11.660;2023-04-30T03:45:21;95824.25;;;10.10;100.00
65800;BME280;52544;48.116;11.660;2023-04-30T03:47:46;95821.38;;;10.01;100.00
65800;BME280;52544;48.116;11.660;2023-04-30T03:50:13;95824.41;;;9.97;100.00
65800;BME280;52544;48.116;11.660;2023-04-30T03:52:38;95822.34;;;9.89;100.00
65800;BME280;52544;48.116;11.660;2023-04-30T03:55:04;95825.13;;;9.88;100.00
65800;BME280;52544;48.116;11.660;2023-04-30T03:57:30;95818.16;;;9.87;100.00
65800;BME280;52544;48.116;11.660;2023-04-30T03:59:56;95818.63;;;9.81;100.00
65800;BME280;52544;48.116;11.660;2023-04-30T04:02:21;95816.72;;;9.71;100.00
65800;BME280;52544;48.116;11.660;2023-04-30T04:04:47;95813.00;;;9.74;100.00
65800;BME280;52544;48.116;11.660;2023-04-30T04:07:13;95828.47;;;9.67;100.00
65800;BME280;52544;48.116;11.660;2023-04-30T04:09:39;95826.19;;;9.63;100.00
65800;BME280;52544;48.116;11.660;2023-04-30T04:12:04;95824.88;;;9.68;100.00
65800;BME280;52544;48.116;11.660;2023-04-30T04:14:30;95827.50;;;9.68;100.00
65800;BME280;52544;48.116;11.660;2023-04-30T04:16:56;95828.50;;;9.79;100.00
65800;BME280;52544;48.116;11.660;2023-04-30T04:19:22;95832.34;;;9.86;100.00
65800;BME280;52544;48.116;11.660;2023-04-30T04:21:48;95841.00;;;9.88;100.00
65800;BME280;52544;48.116;11.660;2023-04-30T04:24:13;95839.78;;;9.92;100.00
65800;BME280;52544;48.116;11.660;2023-04-30T04:26:38;95836.06;;;9.94;100.00
65800;BME280;52544;48.116;11.660;2023-04-30T04:29:04;95836.41;;;10.01;100.00
65800;BME280;52544;48.116;11.660;2023-04-30T04:31:30;95841.94;;;9.98;100.00
65800;BME280;52544;48.116;11.660;2023-04-30T04:33:59;95846.53;;;10.07;100.00
65800;BME280;52544;48.116;11.660;2023-04-30T04:36:26;95848.66;;;10.02;100.00
65800;BME280;52544;48.116;11.660;2023-04-30T04:38:53;95854.09;;;10.12;100.00
65800;BME280;52544;48.116;11.660;2023-04-30T04:41:18;95856.97;;;10.09;100.00
65800;BME280;52544;48.116;11.660;2023-04-30T04:43:45;95861.88;;;10.13;100.00
65800;BME280;52544;48.116;11.660;2023-04-30T04:46:10;95854.94;;;10.12;100.00
65800;BME280;52544;48.116;11.660;2023-04-30T04:48:35;95856.38;;;10.16;100.00
65800;BME280;52544;48.116;11.660;2023-04-30T04:51:01;95854.44;;;10.18;100.00
65800;BME280;52544;48.116;11.660;2023-04-30T04:53:26;95855.88;;;10.22;100.00
65800;BME280;52544;48.116;11.660;2023-04-30T04:55:52;95861.16;;;10.22;100.00
65800;BME280;52544;48.116;11.660;2023-04-30T04:58:17;95859.28;;;10.24;100.00
65800;BME280;52544;48.116;11.660;2023-04-30T05:00:43;95860.72;;;10.29;100.00
65800;BME280;52544;48.116;11.660;2023-04-30T05:03:09;95858.91;;;10.29;100.00
65800;BME280;52544;48.116;11.660;2023-04-30T05:05:34;95863.09;;;10.20;100.00
65800;BME280;52544;48.116;11.660;2023-04-30T05:08:00;95863.22;;;10.30;100.00
65800;BME280;52544;48.116;11.660;2023-04-30T05:10:25;95859.63;;;10.31;100.00
65800;BME280;52544;48.116;11.660;2023-04-30T05:12:51;95857.44;;;10.36;100.00
65800;BME280;52544;48.116;11.660;2023-04-30T05:15:16;95863.31;;;10.40;100.00
65800;BME280;52544;48.116;11.660;2023-04-30T05:17:42;95868.38;;;10.43;100.00
65800;BME280;52544;48.116;11.660;2023-04-30T05:20:07;95876.31;;;10.43;100.00
65800;BME280;52544;48.116;11.660;2023-04-30T05:22:33;95878.22;;;10.52;100.00
65800;BME280;52544;48.116;11.660;2023-04-30T05:24:59;95875.34;;;10.55;100.00
65800;BME280;52544;48.116;11.660;2023-04-30T05:27:24;95879.69;;;10.45;100.00
65800;BME280;52544;48.116;11.660;2023-04-30T05:29:51;95879.31;;;10.49;100.00
65800;BME280;52544;48.116;11.660;2023-04-30T05:32:16;95881.09;;;10.60;100.00
65800;BME280;52544;48.116;11.660;2023-04-30T05:34:42;95880.00;;;10.63;100.00
65800;BME280;52544;48.116;11.660;2023-04-30T05:37:07;95882.53;;;10.64;100.00
65800;BME280;52544;48.116;11.660;2023-04-30T05:39:32;95884.94;;;10.67;100.00
65800;BME280;52544;48.116;11.660;2023-04-30T05:41:58;95890.69;;;10.72;100.00
65800;BME280;52544;48.116;11.660;2023-04-30T05:44:23;95883.81;;;10.70;100.00
65800;BME280;52544;48.116;11.660;2023-04-30T05:46:49;95886.38;;;10.71;100.00
65800;BME280;52544;48.116;11.660;2023-04-30T05:49:14;95888.25;;;10.81;100.00
65800;BME280;52544;48.116;11.660;2023-04-30T05:51:40;95879.94;;;10.85;100.00
65800;BME280;52544;48.116;11.660;2023-04-30T05:54:05;95882.38;;;10.77;100.00
65800;BME280;52544;48.116;11.660;2023-04-30T05:56:30;95879.34;;;10.82;100.00
65800;BME280;52544;48.116;11.660;2023-04-30T05:58:56;95874.28;;;10.79;100.00
65800;BME280;52544;48.116;11.660;2023-04-30T06:01:21;95876.31;;;10.86;100.00
65800;BME280;52544;48.116;11.660;2023-04-30T06:03:47;95870.78;;;10.89;100.00
65800;BME280;52544;48.116;11.660;2023-04-30T06:06:13;95873.78;;;10.96;100.00
65800;BME280;52544;48.116;11.660;2023-04-30T06:08:38;95871.31;;;11.04;100.00
65800;BME280;52544;48.116;11.660;2023-04-30T06:11:09;95873.72;;;11.07;100.00
65800;BME280;52544;48.116;11.660;2023-04-30T06:13:35;95878.38;;;11.15;100.00
65800;BME280;52544;48.116;11.660;2023-04-30T06:16:00;95871.34;;;11.25;100.00
65800;BME280;52544;48.116;11.660;2023-04-30T06:18:26;95869.16;;;11.30;100.00
65800;BME280;52544;48.116;11.660;2023-04-30T06:20:51;95876.72;;;11.35;100.00
65800;BME280;52544;48.116;11.660;2023-04-30T06:23:17;95872.13;;;11.37;100.00
65800;BME280;52544;48.116;11.660;2023-04-30T06:25:42;95874.13;;;11.44;100.00
65800;BME280;52544;48.116;11.660;2023-04-30T06:28:08;95863.28;;;11.47;100.00
65800;BME280;52544;48.116;11.660;2023-04-30T06:30:35;95867.66;;;11.58;100.00
65800;BME280;52544;48.116;11.660;2023-04-30T06:33:00;95855.38;;;11.57;100.00
65800;BME280;52544;48.116;11.660;2023-04-30T06:35:26;95858.28;;;11.75;100.00
65800;BME280;52544;48.116;11.660;2023-04-30T06:37:51;95857.59;;;11.94;100.00
65800;BME280;52544;48.116;11.660;2023-04-30T06:40:16;95863.78;;;12.14;100.00
65800;BME280;52544;48.116;11.660;2023-04-30T06:42:42;95856.31;;;12.29;100.00
65800;BME280;52544;48.116;11.660;2023-04-30T06:45:08;95864.59;;;12.45;100.00
65800;BME280;52544;48.116;11.660;2023-04-30T06:47:34;95859.06;;;12.67;100.00
65800;BME280;52544;48.116;11.660;2023-04-30T06:50:01;95863.38;;;12.68;99.99
65800;BME280;52544;48.116;11.660;2023-04-30T06:52:27;95864.38;;;12.67;100.00
65800;BME280;52544;48.116;11.660;2023-04-30T06:54:52;95870.41;;;12.89;99.56
65800;BME280;52544;48.116;11.660;2023-04-30T06:57:18;95861.47;;;12.99;98.23
65800;BME280;52544;48.116;11.660;2023-04-30T06:59:43;95862.06;;;13.22;96.00
65800;BME280;52544;48.116;11.660;2023-04-30T07:02:09;95860.09;;;13.24;95.49
65800;BME280;52544;48.116;11.660;2023-04-30T07:04:34;95861.34;;;13.40;93.48
65800;BME280;52544;48.116;11.660;2023-04-30T07:07:00;95857.56;;;13.52;93.78
65800;BME280;52544;48.116;11.660;2023-04-30T07:09:28;95862.31;;;13.68;92.82
65800;BME280;52544;48.116;11.660;2023-04-30T07:11:54;95864.75;;;13.89;91.76
65800;BME280;52544;48.116;11.660;2023-04-30T07:14:20;95863.06;;;13.88;90.96
65800;BME280;52544;48.116;11.660;2023-04-30T07:16:45;95858.63;;;13.79;90.40
65800;BME280;52544;48.116;11.660;2023-04-30T07:19:13;95864.06;;;13.87;91.68
65800;BME280;52544;48.116;11.660;2023-04-30T07:21:39;95851.44;;;13.89;91.96
65800;BME280;52544;48.116;11.660;2023-04-30T07:24:04;95852.38;;;14.07;91.27
65800;BME280;52544;48.116;11.660;2023-04-30T07:26:30;95858.75;;;14.24;90.25
65800;BME280;52544;48.116;11.660;2023-04-30T07:28:55;95859.16;;;14.29;90.35
65800;BME280;52544;48.116;11.660;2023-04-30T07:31:21;95860.41;;;14.62;87.64
65800;BME280;52544;48.116;11.660;2023-04-30T07:33:46;95852.63;;;14.79;88.48
65800;BME280;52544;48.116;11.660;2023-04-30T07:36:12;95868.53;;;14.88;85.46
65800;BME280;52544;48.116;11.660;2023-04-30T07:38:38;95859.22;;;14.74;84.14
65800;BME280;52544;48.116;11.660;2023-04-30T07:41:03;95862.13;;;14.99;82.94
65800;BME280;52544;48.116;11.660;2023-04-30T07:43:29;95856.81;;;15.17;82.24
65800;BME280;52544;48.116;11.660;2023-04-30T07:45:55;95847.66;;;15.19;81.27
65800;BME280;52544;48.116;11.660;2023-04-30T07:48:20;95855.44;;;15.13;82.68
65800;BME280;52544;48.116;11.660;2023-04-30T07:50:47;95845.44;;;15.33;82.45
65800;BME280;52544;48.116;11.660;2023-04-30T07:53:12;95846.41;;;15.49;80.08
65800;BME280;52544;48.116;11.660;2023-04-30T07:55:38;95846.81;;;15.37;80.02
65800;BME280;52544;48.116;11.660;2023-04-30T07:58:03;95840.47;;;15.56;80.13
65800;BME280;52544;48.116;11.660;2023-04-30T08:00:28;95846.94;;;15.53;79.68
65800;BME280;52544;48.116;11.660;2023-04-30T08:02:56;95848.56;;;15.90;80.17
65800;BME280;52544;48.116;11.660;2023-04-30T08:05:21;95843.84;;;15.84;78.07
65800;BME280;52544;48.116;11.660;2023-04-30T08:07:47;95835.56;;;16.21;79.47
65800;BME280;52544;48.116;11.660;2023-04-30T08:10:12;95838.31;;;16.37;78.06
65800;BME280;52544;48.116;11.660;2023-04-30T08:12:37;95840.75;;;16.57;74.46
65800;BME280;52544;48.116;11.660;2023-04-30T08:15:05;95847.38;;;16.44;73.71
65800;BME280;52544;48.116;11.660;2023-04-30T08:17:32;95842.56;;;16.22;75.42
65800;BME280;52544;48.116;11.660;2023-04-30T08:19:57;95838.09;;;16.31;75.95
65800;BME280;52544;48.116;11.660;2023-04-30T08:22:23;95842.47;;;16.32;73.96
65800;BME280;52544;48.116;11.660;2023-04-30T08:24:49;95843.66;;;16.37;75.05
65800;BME280;52544;48.116;11.660;2023-04-30T08:27:15;95846.16;;;16.39;72.54
65800;BME280;52544;48.116;11.660;2023-04-30T08:29:40;95837.66;;;16.09;73.29
65800;BME280;52544;48.116;11.660;2023-04-30T08:32:06;95841.50;;;15.63;74.78
65800;BME280;52544;48.116;11.660;2023-04-30T08:34:31;95843.78;;;15.32;78.76
65800;BME280;52544;48.116;11.660;2023-04-30T08:36:56;95845.03;;;15.45;82.74
65800;BME280;52544;48.116;11.660;2023-04-30T08:39:23;95842.44;;;15.71;77.98
65800;BME280;52544;48.116;11.660;2023-04-30T08:41:54;95845.78;;;15.99;77.02
65800;BME280;52544;48.116;11.660;2023-04-30T08:44:21;95843.06;;;15.91;76.39
65800;BME280;52544;48.116;11.660;2023-04-30T08:46:51;95839.16;;;15.78;74.46
65800;BME280;52544;48.116;11.660;2023-04-30T08:49:17;95842.38;;;15.63;74.68
65800;BME280;52544;48.116;11.660;2023-04-30T08:51:45;95850.53;;;15.44;75.49
65800;BME280;52544;48.116;11.660;2023-04-30T08:54:11;95843.63;;;15.15;75.85
65800;BME280;52544;48.116;11.660;2023-04-30T08:56:38;95849.50;;;15.01;78.60
65800;BME280;52544;48.116;11.660;2023-04-30T08:59:05;95851.09;;;14.94;80.38
65800;BME280;52544;48.116;11.660;2023-04-30T09:01:30;95853.28;;;14.81;79.48
65800;BME280;52544;48.116;11.660;2023-04-30T09:03:56;95866.13;;;14.67;82.54
65800;BME280;52544;48.116;11.660;2023-04-30T09:06:21;95863.13;;;14.53;84.28
65800;BME280;52544;48.116;11.660;2023-04-30T09:08:48;95858.19;;;14.48;84.86
65800;BME280;52544;48.116;11.660;2023-04-30T09:11:21;95860.91;;;14.38;84.87
65800;BME280;52544;48.116;11.660;2023-04-30T09:13:49;95859.09;;;14.39;86.51
65800;BME280;52544;48.116;11.660;2023-04-30T09:16:15;95856.44;;;14.39;85.84
65800;BME280;52544;48.116;11.660;2023-04-30T09:18:40;95854.16;;;14.44;86.95
65800;BME280;52544;48.116;11.660;2023-04-30T09:21:06;95856.00;;;14.53;87.20
65800;BME280;52544;48.116;11.660;2023-04-30T09:23:33;95860.19;;;14.46;87.31
65800;BME280;52544;48.116;11.660;2023-04-30T09:25:58;95868.06;;;14.38;86.88
65800;BME280;52544;48.116;11.660;2023-04-30T09:28:25;95865.03;;;14.33;86.04
65800;BME280;52544;48.116;11.660;2023-04-30T09:30:56;95868.16;;;14.18;85.65
65800;BME280;52544;48.116;11.660;2023-04-30T09:33:22;95868.22;;;13.99;86.51
65800;BME280;52544;48.116;11.660;2023-04-30T09:35:47;95871.78;;;13.90;87.22
65800;BME280;52544;48.116;11.660;2023-04-30T09:38:31;95859.06;;;13.74;88.06
65800;BME280;52544;48.116;11.660;2023-04-30T09:41:00;95854.72;;;13.73;89.33
65800;BME280;52544;48.116;11.660;2023-04-30T09:43:27;95857.81;;;13.68;89.97
65800;BME280;52544;48.116;11.660;2023-04-30T09:45:53;95859.50;;;13.69;89.71
65800;BME280;52544;48.116;11.660;2023-04-30T09:48:22;95859.66;;;13.68;88.99
65800;BME280;52544;48.116;11.660;2023-04-30T09:50:48;95863.56;;;13.64;89.50
65800;BME280;52544;48.116;11.660;2023-04-30T09:53:14;95860.34;;;13.60;87.75
65800;BME280;52544;48.116;11.660;2023-04-30T09:55:49;95863.97;;;13.59;91.16
65800;BME280;52544;48.116;11.660;2023-04-30T09:58:16;95862.72;;;13.63;89.54
65800;BME280;52544;48.116;11.660;2023-04-30T10:00:44;95854.44;;;13.66;88.80
65800;BME280;52544;48.116;11.660;2023-04-30T10:03:12;95850.94;;;13.75;86.33
65800;BME280;52544;48.116;11.660;2023-04-30T10:05:43;95858.91;;;13.85;87.73
65800;BME280;52544;48.116;11.660;2023-04-30T10:10:57;95849.88;;;13.96;85.33
65800;BME280;52544;48.116;11.660;2023-04-30T10:13:25;95864.31;;;14.03;86.27
65800;BME280;52544;48.116;11.660;2023-04-30T10:15:55;95850.00;;;14.04;85.73
65800;BME280;52544;48.116;11.660;2023-04-30T10:18:28;95847.44;;;14.12;86.21
65800;BME280;52544;48.116;11.660;2023-04-30T10:20:55;95844.63;;;14.23;87.45
65800;BME280;52544;48.116;11.660;2023-04-30T10:23:21;95849.72;;;14.35;85.30
65800;BME280;52544;48.116;11.660;2023-04-30T10:25:47;95846.16;;;14.44;82.42
65800;BME280;52544;48.116;11.660;2023-04-30T10:28:14;95837.63;;;14.50;80.82
65800;BME280;52544;48.116;11.660;2023-04-30T10:30:41;95844.88;;;14.58;78.61
65800;BME280;52544;48.116;11.660;2023-04-30T10:33:28;95838.72;;;14.57;80.36
65800;BME280;52544;48.116;11.660;2023-04-30T10:36:00;95828.31;;;14.64;80.93
65800;BME280;52544;48.116;11.660;2023-04-30T10:38:30;95828.22;;;14.73;80.28
65800;BME280;52544;48.116;11.660;2023-04-30T10:40:58;95822.69;;;14.85;77.39
65800;BME280;52544;48.116;11.660;2023-04-30T10:43:24;95823.97;;;14.81;73.11
65800;BME280;52544;48.116;11.660;2023-04-30T10:45:50;95824.72;;;14.91;75.92
65800;BME280;52544;48.116;11.660;2023-04-30T10:48:16;95831.47;;;15.13;73.68
65800;BME280;52544;48.116;11.660;2023-04-30T10:50:50;95819.41;;;15.27;71.57
65800;BME280;52544;48.116;11.660;2023-04-30T10:53:17;95805.47;;;15.59;71.46
65800;BME280;52544;48.116;11.660;2023-04-30T10:56:02;95809.97;;;15.76;70.34
65800;BME280;52544;48.116;11.660;2023-04-30T10:58:33;95800.78;;;16.05;70.43
65800;BME280;52544;48.116;11.660;2023-04-30T11:01:05;95806.00;;;16.22;68.51
65800;BME280;52544;48.116;11.660;2023-04-30T11:03:33;95807.94;;;16.38;68.84
65800;BME280;52544;48.116;11.660;2023-04-30T11:06:00;95795.47;;;16.55;67.49
65800;BME280;52544;48.116;11.660;2023-04-30T11:08:52;95793.06;;;17.03;68.60
65800;BME280;52544;48.116;11.660;2023-04-30T11:11:18;95793.59;;;17.55;67.46
65800;BME280;52544;48.116;11.660;2023-04-30T11:13:58;95790.06;;;17.63;61.18
65800;BME280;52544;48.116;11.660;2023-04-30T11:16:32;95782.88;;;17.63;59.51
65800;BME280;52544;48.116;11.660;2023-04-30T11:19:05;95783.19;;;17.93;62.05
65800;BME280;52544;48.116;11.660;2023-04-30T11:21:31;95792.25;;;18.31;61.20
65800;BME280;52544;48.116;11.660;2023-04-30T11:24:02;95782.38;;;18.63;58.31
65800;BME280;52544;48.116;11.660;2023-04-30T11:27:03;95775.72;;;18.90;55.37
65800;BME280;52544;48.116;11.660;2023-04-30T11:29:32;95778.13;;;19.08;54.81
65800;BME280;52544;48.116;11.660;2023-04-30T11:32:03;95787.81;;;18.86;54.75
65800;BME280;52544;48.116;11.660;2023-04-30T11:34:29;95786.22;;;18.29;54.07
65800;BME280;52544;48.116;11.660;2023-04-30T11:36:57;95780.84;;;17.90;57.19
65800;BME280;52544;48.116;11.660;2023-04-30T11:39:25;95782.19;;;17.94;56.87
65800;BME280;52544;48.116;11.660;2023-04-30T11:41:51;95785.53;;;17.88;57.49
65800;BME280;52544;48.116;11.660;2023-04-30T11:44:25;95784.69;;;17.71;57.91
65800;BME280;52544;48.116;11.660;2023-04-30T11:46:50;95788.91;;;17.49;58.16
65800;BME280;52544;48.116;11.660;2023-04-30T11:49:16;95785.25;;;17.09;58.81
65800;BME280;52544;48.116;11.660;2023-04-30T11:51:41;95783.88;;;16.97;59.82
65800;BME280;52544;48.116;11.660;2023-04-30T11:54:07;95788.38;;;16.80;59.22
65800;BME280;52544;48.116;11.660;2023-04-30T11:56:36;95782.63;;;16.67;59.83
65800;BME280;52544;48.116;11.660;2023-04-30T11:59:09;95784.22;;;16.35;61.98
65800;BME280;52544;48.116;11.660;2023-04-30T12:01:35;95779.31;;;16.22;61.61
65800;BME280;52544;48.116;11.660;2023-04-30T12:04:01;95778.31;;;16.15;61.82
65800;BME280;52544;48.116;11.660;2023-04-30T12:06:28;95776.97;;;16.11;62.71
65800;BME280;52544;48.116;11.660;2023-04-30T12:08:56;95780.72;;;16.00;62.79
65800;BME280;52544;48.116;11.660;2023-04-30T12:16:50;95787.28;;;15.72;62.08
65800;BME280;52544;48.116;11.660;2023-04-30T12:19:17;95776.06;;;15.68;63.98
65800;BME280;52544;48.116;11.660;2023-04-30T12:21:44;95776.06;;;15.68;63.15
65800;BME280;52544;48.116;11.660;2023-04-30T12:24:12;95780.25;;;15.71;63.58
65800;BME280;52544;48.116;11.660;2023-04-30T12:26:38;95774.06;;;15.70;62.89
65800;BME280;52544;48.116;11.660;2023-04-30T12:29:08;95783.91;;;15.70;63.25
65800;BME280;52544;48.116;11.660;2023-04-30T12:31:36;95771.75;;;15.75;63.72
65800;BME280;52544;48.116;11.660;2023-04-30T12:34:07;95768.31;;;15.83;63.16
65800;BME280;52544;48.116;11.660;2023-04-30T12:36:33;95772.16;;;15.81;61.75
65800;BME280;52544;48.116;11.660;2023-04-30T12:39:11;95765.16;;;15.88;62.80
65800;BME280;52544;48.116;11.660;2023-04-30T12:41:45;95769.03;;;15.93;63.43
65800;BME280;52544;48.116;11.660;2023-04-30T12:46:39;95767.75;;;16.06;61.72
65800;BME280;52544;48.116;11.660;2023-04-30T12:49:05;95765.63;;;16.17;61.51
65800;BME280;52544;48.116;11.660;2023-04-30T12:53:55;95750.53;;;16.50;60.65
65800;BME280;52544;48.116;11.660;2023-04-30T12:56:21;95744.13;;;17.18;59.70
65800;BME280;52544;48.116;11.660;2023-04-30T12:58:47;95739.88;;;17.73;56.00
65800;BME280;52544;48.116;11.660;2023-04-30T13:01:19;95743.13;;;18.08;53.20
65800;BME280;52544;48.116;11.660;2023-04-30T13:03:45;95733.41;;;18.46;53.07
65800;BME280;52544;48.116;11.660;2023-04-30T13:06:11;95731.94;;;18.75;50.83
65800;BME280;52544;48.116;11.660;2023-04-30T13:08:37;95730.66;;;18.85;50.00